TimePDT,TemperatureF,Dew PointF,Humidity,Sea Level PressureIn,VisibilityMPH,Wind Direction,Wind SpeedMPH,Gust SpeedMPH,PrecipitationIn,Events,Conditions,WindDirDegrees,DateUTC
12:09 AM,66.2,62.6,88,30.06,10.0,West,6.9,-,N/A,,Overcast,270,2012-10-19 07:09:00
12:53 AM,64.9,62.1,90,30.05,9.0,West,5.8,-,N/A,,Overcast,270,2012-10-19 07:53:00
1:53 AM,64.0,63.0,96,30.06,6.0,West,3.5,-,N/A,,Overcast,270,2012-10-19 08:53:00
2:20 AM,64.4,62.6,94,30.05,8.0,West,4.6,-,N/A,,Overcast,270,2012-10-19 09:20:00
2:53 AM,64.0,62.1,93,30.04,9.0,WSW,4.6,-,N/A,,Overcast,250,2012-10-19 09:53:00
3:20 AM,64.4,62.6,94,30.04,9.0,WSW,4.6,-,N/A,,Overcast,250,2012-10-19 10:20:00
3:53 AM,64.0,62.1,93,30.04,10.0,West,4.6,-,N/A,,Overcast,260,2012-10-19 10:53:00
4:53 AM,63.0,62.1,97,30.03,10.0,WSW,5.8,-,N/A,,Overcast,240,2012-10-19 11:53:00
5:32 AM,62.6,60.8,94,30.04,10.0,WSW,3.5,-,N/A,,Mostly Cloudy,250,2012-10-19 12:32:00
5:53 AM,63.0,61.0,93,30.04,10.0,WSW,4.6,-,N/A,,Scattered Clouds,240,2012-10-19 12:53:00
6:16 AM,62.6,60.8,94,30.05,10.0,Calm,Calm,-,N/A,,Mostly Cloudy,0,2012-10-19 13:16:00
6:53 AM,63.0,61.0,93,30.05,10.0,SW,3.5,-,N/A,,Overcast,220,2012-10-19 13:53:00
7:53 AM,63.0,61.0,93,30.05,10.0,Calm,Calm,-,N/A,,Overcast,0,2012-10-19 14:53:00
8:53 AM,64.9,61.0,87,30.06,10.0,Calm,Calm,-,N/A,,Overcast,0,2012-10-19 15:53:00
9:07 AM,64.4,60.8,88,30.07,10.0,Calm,Calm,-,N/A,,Overcast,0,2012-10-19 16:07:00
9:53 AM,66.0,61.0,84,30.06,10.0,Calm,Calm,-,N/A,,Overcast,0,2012-10-19 16:53:00
10:53 AM,66.9,61.0,81,30.06,10.0,Calm,Calm,-,N/A,,Overcast,0,2012-10-19 17:53:00
11:40 AM,69.8,60.8,73,30.05,10.0,SW,5.8,-,N/A,,Overcast,220,2012-10-19 18:40:00
11:53 AM,69.1,61.0,75,30.05,10.0,WSW,6.9,-,N/A,,Mostly Cloudy,240,2012-10-19 18:53:00
12:00 PM,69.8,60.8,73,30.05,10.0,WSW,4.6,-,N/A,,Scattered Clouds,240,2012-10-19 19:00:00
12:53 PM,71.1,60.1,68,30.02,10.0,SW,9.2,-,N/A,,Clear,230,2012-10-19 19:53:00
1:53 PM,69.1,60.1,73,30.00,10.0,SW,8.1,-,N/A,,Clear,230,2012-10-19 20:53:00
2:53 PM,69.1,59.0,70,29.98,10.0,WSW,8.1,-,N/A,,Clear,240,2012-10-19 21:53:00
3:14 PM,68.0,59.0,73,29.98,10.0,SW,8.1,-,N/A,,Partly Cloudy,230,2012-10-19 22:14:00
3:53 PM,66.9,59.0,76,29.97,10.0,SW,9.2,-,N/A,,Mostly Cloudy,220,2012-10-19 22:53:00
4:53 PM,63.0,59.0,87,29.96,10.0,SSW,8.1,-,N/A,,Overcast,210,2012-10-19 23:53:00
5:17 PM,62.6,59.0,88,29.95,10.0,SSW,3.5,-,N/A,,Overcast,210,2012-10-20 00:17:00
5:53 PM,61.0,59.0,93,29.95,10.0,SSW,3.5,-,N/A,,Overcast,200,2012-10-20 00:53:00
6:16 PM,60.8,59.0,94,29.94,6.0,SSW,3.5,-,N/A,,Overcast,200,2012-10-20 01:16:00
6:33 PM,60.8,59.0,94,29.95,2.0,Calm,Calm,-,N/A,,Overcast,0,2012-10-20 01:33:00
6:45 PM,60.8,57.2,88,29.95,3.0,Calm,Calm,-,N/A,,Overcast,0,2012-10-20 01:45:00
6:53 PM,60.1,59.0,96,29.94,2.5,South,3.5,-,N/A,,Overcast,180,2012-10-20 01:53:00
7:14 PM,59.0,57.2,94,29.94,1.5,Calm,Calm,-,N/A,,Overcast,0,2012-10-20 02:14:00
7:32 PM,59.0,57.2,94,29.95,2.5,Calm,Calm,-,N/A,,Overcast,0,2012-10-20 02:32:00
7:39 PM,59.0,57.2,94,29.95,5.0,South,3.5,-,N/A,,Overcast,180,2012-10-20 02:39:00
7:53 PM,59.0,57.9,96,29.95,3.0,South,4.6,-,N/A,,Overcast,180,2012-10-20 02:53:00
8:53 PM,59.0,57.9,96,29.95,5.0,ESE,4.6,-,N/A,,Overcast,120,2012-10-20 03:53:00
9:53 PM,59.0,57.0,93,29.96,5.0,Calm,Calm,-,N/A,,Overcast,0,2012-10-20 04:53:00
10:53 PM,57.9,57.0,97,29.95,8.0,SE,4.6,-,N/A,,Overcast,140,2012-10-20 05:53:00
11:53 PM,57.0,55.9,96,29.95,10.0,East,4.6,-,N/A,,Overcast,100,2012-10-20 06:53:00